createdAt,value
2022-12-18T00:01:16.024Z,19.63
2022-12-18T00:03:43.233Z,18.15
2022-12-18T00:06:10.798Z,18.92
2022-12-18T00:08:37.440Z,16.45
2022-12-18T00:11:09.660Z,16.55
2022-12-18T00:13:37.028Z,15.43
2022-12-18T00:20:33.214Z,20.80
2022-12-18T00:22:59.925Z,14.63
2022-12-18T00:25:26.655Z,11.90
2022-12-18T00:27:53.379Z,19.52
2022-12-18T00:30:20.397Z,18.75
2022-12-18T00:32:47.205Z,19.40
2022-12-18T00:35:14.027Z,21.50
2022-12-18T00:37:40.701Z,20.67
2022-12-18T00:40:08.416Z,15.80
2022-12-18T00:42:53.598Z,19.15
2022-12-18T00:45:20.302Z,20.92
2022-12-18T00:47:47.063Z,22.10
2022-12-18T00:50:13.739Z,23.63
2022-12-18T00:52:41.806Z,20.40
2022-12-18T00:55:08.897Z,21.63
2022-12-18T01:00:02.856Z,28.45
2022-12-18T01:02:29.887Z,36.72
2022-12-18T01:04:56.653Z,28.35
2022-12-18T01:07:23.481Z,26.77
2022-12-18T01:09:50.182Z,26.00
2022-12-18T01:12:16.963Z,30.48
2022-12-18T01:14:43.668Z,27.85
2022-12-18T01:17:10.376Z,21.70
2022-12-18T01:19:37.090Z,24.98
2022-12-18T01:24:30.936Z,25.67
2022-12-18T01:26:58.182Z,26.73
2022-12-18T01:31:51.511Z,27.85
2022-12-18T01:34:18.198Z,26.58
2022-12-18T01:36:44.869Z,25.95
2022-12-18T01:39:14.388Z,29.27
2022-12-18T01:42:02.092Z,30.70
2022-12-18T01:44:54.139Z,31.60
2022-12-18T01:47:38.058Z,28.55
2022-12-18T01:50:39.235Z,31.80
2022-12-18T01:53:16.783Z,38.22
2022-12-18T01:55:53.318Z,24.05
2022-12-18T01:58:24.159Z,31.23
2022-12-18T02:00:51.034Z,30.60
2022-12-18T02:03:20.158Z,29.17
2022-12-18T02:06:16.561Z,28.00
2022-12-18T02:08:59.498Z,20.63
2022-12-18T02:11:59.359Z,25.67
2022-12-18T02:14:39.236Z,22.13
2022-12-18T02:17:24.456Z,22.05
2022-12-18T02:20:10.443Z,24.98
2022-12-18T02:22:37.088Z,19.48
2022-12-18T02:25:34.928Z,27.60
2022-12-18T02:28:08.001Z,25.17
2022-12-18T02:30:38.603Z,31.20
2022-12-18T02:33:09.012Z,21.77
2022-12-18T02:35:37.236Z,24.33
2022-12-18T02:38:05.530Z,22.55
2022-12-18T02:40:38.475Z,23.20
2022-12-18T02:43:14.115Z,21.83
2022-12-18T02:45:53.045Z,27.13
2022-12-18T02:48:24.551Z,28.55
2022-12-18T02:51:26.414Z,28.00
2022-12-18T02:54:11.474Z,22.05
2022-12-18T02:56:55.371Z,26.83
2022-12-18T02:59:40.999Z,27.20
2022-12-18T03:02:33.856Z,30.48
2022-12-18T03:05:14.091Z,30.80
2022-12-18T03:07:52.822Z,28.77
2022-12-18T03:10:26.008Z,29.42
2022-12-18T03:13:10.464Z,27.55
2022-12-18T03:15:48.894Z,26.23
2022-12-18T03:20:51.848Z,31.70
2022-12-18T03:23:26.664Z,27.52
2022-12-18T03:26:05.859Z,22.90
2022-12-18T03:28:43.014Z,30.10
2022-12-18T03:31:13.383Z,22.80
2022-12-18T03:33:53.233Z,24.48
2022-12-18T03:36:21.916Z,27.45
2022-12-18T03:38:48.908Z,26.33
2022-12-18T03:41:33.315Z,31.65
2022-12-18T03:44:22.173Z,26.02
2022-12-18T03:47:15.592Z,26.67
2022-12-18T03:50:13.595Z,25.50
2022-12-18T03:52:50.006Z,26.27
2022-12-18T03:55:19.293Z,23.42
2022-12-18T03:57:50.365Z,27.55
2022-12-18T04:00:19.006Z,29.00
2022-12-18T04:03:05.652Z,25.70
2022-12-18T04:05:39.755Z,22.38
2022-12-18T04:08:08.007Z,21.25
2022-12-18T04:10:38.302Z,21.20
2022-12-18T04:13:05.103Z,28.25
2022-12-18T04:15:35.595Z,25.88
2022-12-18T04:18:03.875Z,19.33
2022-12-18T04:20:37.551Z,27.58
2022-12-18T04:23:04.351Z,27.15
2022-12-18T04:25:31.092Z,20.98
2022-12-18T04:28:06.323Z,25.52
2022-12-18T04:30:34.440Z,26.88
2022-12-18T04:35:31.211Z,29.10
2022-12-18T04:37:58.276Z,25.90
2022-12-18T04:40:25.084Z,23.88
2022-12-18T04:42:52.713Z,27.77
2022-12-18T04:45:19.633Z,23.77
2022-12-18T04:47:46.369Z,20.98
2022-12-18T04:50:13.065Z,24.88
2022-12-18T04:52:39.775Z,19.30
2022-12-18T04:55:06.798Z,19.70
2022-12-18T05:00:00.215Z,21.98
2022-12-18T05:02:26.986Z,23.15
2022-12-18T05:04:53.766Z,22.05
2022-12-18T05:07:20.471Z,21.65
2022-12-18T05:09:47.268Z,21.67
2022-12-18T05:12:14.118Z,17.40
2022-12-18T05:14:40.824Z,21.80
2022-12-18T05:17:07.493Z,21.73
2022-12-18T05:19:34.303Z,22.58
2022-12-18T05:22:01.027Z,19.48
2022-12-18T05:24:27.725Z,17.48
2022-12-18T05:26:54.404Z,23.40
2022-12-18T05:29:21.110Z,22.02
2022-12-18T05:31:47.901Z,23.65
2022-12-18T05:34:14.742Z,16.65
2022-12-18T05:36:41.423Z,15.10
2022-12-18T05:39:08.543Z,20.38
2022-12-18T05:44:01.986Z,19.23
2022-12-18T05:46:28.821Z,18.92
2022-12-18T05:48:55.624Z,17.63
2022-12-18T05:51:23.515Z,20.15
2022-12-18T05:53:50.246Z,17.48
2022-12-18T05:56:22.438Z,21.45
2022-12-18T05:58:53.313Z,16.38
2022-12-18T06:01:25.322Z,18.95
2022-12-18T06:03:52.285Z,22.13
2022-12-18T06:06:23.114Z,23.83
2022-12-18T06:08:50.436Z,19.33
2022-12-18T06:11:19.571Z,21.20
2022-12-18T06:13:46.657Z,23.73
2022-12-18T06:23:49.535Z,22.52
2022-12-18T06:26:16.743Z,28.50
2022-12-18T06:28:43.632Z,24.05
2022-12-18T06:31:11.308Z,22.30
2022-12-18T06:33:38.877Z,21.35
2022-12-18T06:36:11.344Z,23.77
2022-12-18T06:38:42.026Z,23.25
2022-12-18T06:41:10.003Z,18.75
2022-12-18T06:43:37.584Z,22.42
2022-12-18T06:46:06.183Z,19.67
2022-12-18T06:48:33.401Z,24.88
2022-12-18T06:53:27.647Z,18.00
2022-12-18T06:56:03.858Z,21.67
2022-12-18T06:58:33.570Z,29.88
2022-12-18T07:03:27.953Z,16.77
2022-12-18T07:05:54.612Z,26.73
2022-12-18T07:08:21.316Z,15.52
2022-12-18T07:10:54.428Z,18.50
2022-12-18T07:13:23.235Z,18.60
2022-12-18T07:15:49.967Z,21.60
2022-12-18T07:18:16.643Z,25.63
2022-12-18T07:20:43.487Z,24.90
2022-12-18T07:23:10.212Z,22.00
2022-12-18T07:25:37.910Z,22.40
2022-12-18T07:28:05.148Z,18.55
2022-12-18T07:30:32.257Z,74.72
2022-12-18T07:35:25.656Z,42.55
2022-12-18T07:37:52.411Z,24.55
2022-12-18T07:40:19.154Z,29.85
2022-12-18T07:42:45.820Z,37.45
2022-12-18T07:45:12.528Z,33.75
2022-12-18T07:47:39.326Z,24.88
2022-12-18T07:50:06.700Z,49.03
2022-12-18T07:52:33.541Z,38.55
2022-12-18T07:55:00.819Z,36.85
2022-12-18T07:57:49.373Z,36.80
2022-12-18T08:00:14.892Z,28.70
2022-12-18T08:02:42.318Z,30.85
2022-12-18T08:05:09.572Z,31.75
2022-12-18T08:10:02.913Z,28.70
2022-12-18T08:12:30.834Z,30.80
2022-12-18T08:14:57.525Z,30.67
2022-12-18T08:17:24.399Z,27.67
2022-12-18T08:19:51.045Z,24.25
2022-12-18T08:22:17.720Z,27.33
2022-12-18T08:24:44.456Z,20.00
2022-12-18T08:27:29.043Z,27.38
2022-12-18T08:29:57.261Z,35.92
2022-12-18T08:32:24.703Z,39.28
2022-12-18T08:34:51.421Z,30.25
2022-12-18T08:37:18.151Z,39.42
2022-12-18T08:39:44.835Z,31.08
2022-12-18T08:42:30.408Z,28.33
2022-12-18T08:44:57.115Z,21.73
2022-12-18T08:47:23.802Z,28.02
2022-12-18T08:49:50.475Z,26.65
2022-12-18T08:52:17.136Z,25.90
2022-12-18T08:54:43.923Z,26.40
2022-12-18T08:57:10.697Z,26.38
2022-12-18T08:59:37.391Z,28.95
2022-12-18T09:02:04.279Z,27.33
2022-12-18T09:04:31.144Z,20.55
2022-12-18T09:06:57.829Z,23.17
2022-12-18T09:09:24.528Z,21.52
2022-12-18T09:11:51.265Z,20.70
2022-12-18T09:14:17.949Z,19.48
2022-12-18T09:16:44.750Z,18.17
2022-12-18T09:19:11.781Z,25.40
2022-12-18T09:21:41.217Z,24.17
2022-12-18T09:24:14.856Z,23.02
2022-12-18T09:26:41.623Z,24.95
2022-12-18T09:29:10.398Z,22.70
2022-12-18T09:31:37.675Z,29.77
2022-12-18T09:34:04.364Z,22.92
2022-12-18T09:36:32.508Z,21.38
2022-12-18T09:39:03.745Z,33.00
2022-12-18T09:41:35.908Z,17.33
2022-12-18T09:44:14.980Z,19.35
2022-12-18T09:46:47.682Z,16.92
2022-12-18T09:49:18.738Z,21.45
2022-12-18T09:51:52.034Z,18.08
2022-12-18T09:54:26.600Z,19.10
2022-12-18T09:56:54.573Z,21.80
2022-12-18T09:59:32.857Z,16.45
2022-12-18T10:01:59.640Z,21.48
2022-12-18T10:04:31.513Z,18.75
2022-12-18T10:07:09.328Z,18.35
2022-12-18T10:09:53.637Z,12.83
2022-12-18T10:12:20.532Z,19.67
2022-12-18T10:14:55.665Z,20.27
2022-12-18T10:18:18.789Z,25.20
2022-12-18T10:21:02.408Z,19.92
2022-12-18T10:23:53.932Z,21.83
2022-12-18T10:26:20.996Z,17.73
2022-12-18T10:28:48.831Z,13.88
2022-12-18T10:31:24.573Z,16.83
2022-12-18T10:33:54.508Z,17.75
2022-12-18T10:36:21.673Z,15.32
2022-12-18T10:38:50.551Z,17.77
2022-12-18T10:41:21.990Z,17.00
2022-12-18T10:43:48.975Z,21.23
2022-12-18T10:46:20.333Z,18.30
2022-12-18T10:48:55.099Z,12.98
2022-12-18T10:51:34.426Z,14.63
2022-12-18T10:54:17.901Z,17.17
2022-12-18T10:56:45.118Z,20.05
2022-12-18T10:59:15.668Z,21.65
2022-12-18T11:01:58.940Z,17.00
2022-12-18T11:04:28.704Z,17.65
2022-12-18T11:07:04.107Z,15.50
2022-12-18T11:09:36.450Z,16.17
2022-12-18T11:12:07.099Z,15.38
2022-12-18T11:14:47.098Z,19.92
2022-12-18T11:17:32.938Z,17.60
2022-12-18T11:20:01.883Z,26.73
2022-12-18T11:22:31.524Z,16.95
2022-12-18T11:25:34.429Z,10.60
2022-12-18T11:28:25.598Z,13.48
2022-12-18T11:31:09.608Z,12.10
2022-12-18T11:33:38.903Z,14.13
2022-12-18T11:36:10.523Z,11.02
2022-12-18T11:38:40.237Z,11.73
2022-12-18T11:41:19.181Z,14.02
2022-12-18T11:43:59.574Z,16.30
2022-12-18T11:46:35.604Z,15.60
2022-12-18T11:49:22.523Z,12.27
2022-12-18T11:51:59.831Z,10.80
2022-12-18T11:54:26.918Z,13.05
2022-12-18T11:57:11.439Z,15.45
2022-12-18T11:59:44.396Z,16.42
2022-12-18T12:02:34.318Z,13.30
2022-12-18T12:05:19.441Z,15.15
2022-12-18T12:08:08.741Z,14.57
2022-12-18T12:10:45.088Z,13.68
2022-12-18T12:13:30.483Z,12.60
2022-12-18T12:16:12.751Z,10.65
2022-12-18T12:18:42.706Z,10.35
2022-12-18T12:21:22.833Z,8.25
2022-12-18T12:24:13.552Z,11.68
2022-12-18T12:26:53.057Z,10.65
2022-12-18T12:29:45.557Z,9.88
2022-12-18T12:32:21.701Z,8.32
2022-12-18T12:35:26.441Z,8.85
2022-12-18T12:38:11.970Z,11.77
2022-12-18T12:41:02.135Z,11.93
2022-12-18T12:43:50.960Z,9.23
2022-12-18T12:46:22.266Z,13.25
2022-12-18T12:48:53.730Z,10.75
2022-12-18T12:51:35.291Z,22.10
2022-12-18T12:54:06.859Z,8.88
2022-12-18T12:57:04.259Z,14.07
2022-12-18T12:59:52.074Z,11.40
2022-12-18T13:02:34.575Z,10.32
2022-12-18T13:05:31.064Z,10.98
2022-12-18T13:08:08.336Z,12.85
2022-12-18T13:10:41.643Z,17.20
2022-12-18T13:16:08.981Z,16.98
2022-12-18T13:18:36.024Z,15.85
2022-12-18T13:21:14.451Z,12.00
2022-12-18T13:23:41.881Z,11.90
2022-12-18T13:26:09.620Z,10.20
2022-12-18T13:28:46.816Z,17.10
2022-12-18T13:31:32.583Z,10.30
2022-12-18T13:34:27.580Z,14.85
2022-12-18T13:36:58.306Z,17.02
2022-12-18T13:39:35.024Z,17.70
2022-12-18T13:42:08.434Z,19.85
2022-12-18T13:44:42.176Z,23.05
2022-12-18T13:47:33.105Z,29.33
2022-12-18T13:50:01.826Z,31.42
2022-12-18T13:52:40.198Z,25.92
2022-12-18T13:55:16.419Z,20.08
2022-12-18T13:57:43.099Z,29.70
2022-12-18T14:00:30.140Z,27.02
2022-12-18T14:02:58.421Z,22.00
2022-12-18T14:05:27.769Z,18.30
2022-12-18T14:07:55.605Z,15.93
2022-12-18T14:13:16.116Z,13.93
2022-12-18T14:15:47.531Z,22.20
2022-12-18T14:18:26.324Z,24.63
2022-12-18T14:20:56.369Z,14.73
2022-12-18T14:23:35.940Z,18.42
2022-12-18T14:26:06.276Z,68.43
2022-12-18T14:28:33.367Z,74.38
2022-12-18T14:31:00.141Z,56.67
2022-12-18T14:33:28.424Z,50.40
2022-12-18T14:36:01.584Z,34.70
2022-12-18T14:38:28.319Z,36.30
2022-12-18T14:41:15.234Z,31.58
2022-12-18T14:43:44.402Z,39.40
2022-12-18T14:46:33.736Z,36.30
2022-12-18T14:49:29.353Z,60.75
2022-12-18T14:52:23.676Z,47.17
2022-12-18T14:54:50.560Z,35.17
2022-12-18T14:57:25.989Z,23.10
2022-12-18T14:59:52.844Z,24.67
2022-12-18T15:02:30.088Z,21.52
2022-12-18T15:05:09.824Z,29.65
2022-12-18T15:07:45.258Z,40.40
2022-12-18T15:10:13.949Z,37.60
2022-12-18T15:12:46.071Z,37.60
2022-12-18T15:15:34.947Z,25.27
2022-12-18T15:18:03.992Z,26.17
2022-12-18T15:20:40.772Z,29.95
2022-12-18T15:23:25.944Z,33.28
2022-12-18T15:26:04.622Z,36.47
2022-12-18T15:28:46.311Z,29.73
2022-12-18T15:31:13.160Z,24.42
2022-12-18T15:34:04.643Z,22.42
2022-12-18T15:36:31.566Z,31.40
2022-12-18T15:39:04.747Z,31.58
2022-12-18T15:41:35.216Z,32.40
2022-12-18T15:44:04.427Z,22.40
2022-12-18T15:46:31.748Z,24.58
2022-12-18T15:49:02.124Z,25.23
2022-12-18T15:51:36.559Z,26.48
2022-12-18T15:54:06.148Z,29.77
2022-12-18T15:56:52.090Z,25.73
2022-12-18T15:59:20.721Z,22.42
2022-12-18T16:01:49.729Z,27.20
2022-12-18T16:04:21.369Z,44.78
2022-12-18T16:07:13.895Z,34.30
2022-12-18T16:09:37.037Z,25.30
2022-12-18T16:12:03.912Z,28.33
2022-12-18T16:14:31.234Z,32.50
2022-12-18T16:17:00.645Z,30.60
2022-12-18T16:19:27.837Z,25.42
2022-12-18T16:21:57.271Z,28.13
2022-12-18T16:24:26.555Z,26.23
2022-12-18T16:26:54.441Z,37.97
2022-12-18T16:29:25.658Z,29.33
2022-12-18T16:31:53.023Z,31.98
2022-12-18T16:34:29.792Z,32.90
2022-12-18T16:37:05.858Z,25.63
2022-12-18T16:39:37.355Z,35.15
2022-12-18T16:42:20.124Z,37.15
2022-12-18T16:44:48.680Z,35.72
2022-12-18T16:47:16.319Z,49.92
2022-12-18T16:49:45.733Z,47.92
2022-12-18T16:52:13.622Z,39.13
2022-12-18T16:54:40.526Z,26.55
2022-12-18T16:57:07.235Z,26.00
2022-12-18T16:59:35.085Z,34.95
2022-12-18T17:02:01.872Z,49.08
2022-12-18T17:04:28.641Z,46.58
2022-12-18T17:06:55.486Z,35.33
2022-12-18T17:09:26.358Z,31.63
2022-12-18T17:11:54.280Z,26.92
2022-12-18T17:14:23.654Z,26.83
2022-12-18T17:17:07.216Z,21.92
2022-12-18T17:19:36.483Z,19.50
2022-12-18T17:22:04.336Z,22.23
2022-12-18T17:24:34.773Z,22.40
2022-12-18T17:27:02.295Z,21.02
2022-12-18T17:29:29.017Z,19.38
2022-12-18T17:31:55.662Z,17.85
2022-12-18T17:34:24.292Z,15.10
2022-12-18T17:36:51.200Z,16.58
2022-12-18T17:39:20.265Z,15.45
2022-12-18T17:41:48.173Z,15.50
2022-12-18T17:44:15.119Z,23.27
2022-12-18T17:46:42.329Z,19.30
2022-12-18T17:49:10.500Z,19.58
2022-12-18T17:51:37.302Z,20.42
2022-12-18T17:54:05.287Z,23.75
2022-12-18T17:56:32.852Z,26.75
2022-12-18T17:59:00.121Z,24.77
2022-12-18T18:03:57.510Z,23.13
2022-12-18T18:06:24.416Z,27.98
2022-12-18T18:08:51.957Z,37.15
2022-12-18T18:11:40.005Z,27.10
2022-12-18T18:14:13.411Z,30.10
2022-12-18T18:16:43.042Z,23.15
2022-12-18T18:19:12.451Z,34.75
2022-12-18T18:21:41.700Z,31.05
2022-12-18T18:24:10.438Z,41.53
2022-12-18T18:26:37.869Z,40.88
2022-12-18T18:29:06.857Z,36.05
2022-12-18T18:31:39.681Z,42.45
2022-12-18T18:34:08.766Z,40.60
2022-12-18T18:39:02.279Z,44.92
2022-12-18T18:41:30.452Z,35.47
2022-12-18T18:43:58.274Z,37.25
2022-12-18T18:46:25.737Z,65.97
2022-12-18T18:48:53.032Z,106.90
2022-12-18T18:53:50.620Z,36.25
2022-12-18T18:56:56.164Z,33.25
2022-12-18T18:59:06.718Z,37.83
2022-12-18T19:01:33.447Z,44.33
2022-12-18T19:04:01.066Z,41.45
2022-12-18T19:06:28.461Z,37.35
2022-12-18T19:08:57.356Z,35.67
2022-12-18T19:11:44.495Z,40.45
2022-12-18T19:14:13.613Z,32.83
2022-12-18T19:16:40.840Z,31.50
2022-12-18T19:19:08.214Z,28.95
2022-12-18T19:21:35.701Z,30.17
2022-12-18T19:26:30.355Z,23.15
2022-12-18T19:29:08.365Z,26.42
2022-12-18T19:31:37.182Z,14.23
2022-12-18T19:34:06.787Z,17.02
2022-12-18T19:36:35.596Z,20.17
2022-12-18T19:39:08.911Z,20.15
2022-12-18T19:41:35.577Z,19.85
2022-12-18T19:46:36.159Z,17.02
2022-12-18T19:49:07.303Z,23.92
2022-12-18T19:51:34.423Z,21.85
2022-12-18T19:54:02.114Z,20.60
2022-12-18T19:56:32.583Z,17.90
2022-12-18T19:58:59.787Z,10.23
2022-12-18T20:03:55.883Z,18.73
2022-12-18T20:06:31.022Z,18.23
2022-12-18T20:09:01.433Z,22.23
2022-12-18T20:11:32.057Z,18.50
2022-12-18T20:13:59.000Z,22.92
2022-12-18T20:16:25.729Z,21.60
2022-12-18T20:18:52.483Z,26.65
2022-12-18T20:21:19.611Z,31.08
2022-12-18T20:23:46.303Z,23.77
2022-12-18T20:26:13.187Z,38.75
2022-12-18T20:28:40.712Z,34.40
2022-12-18T20:31:10.499Z,30.95
2022-12-18T20:33:41.445Z,27.48
2022-12-18T20:36:12.997Z,23.88
2022-12-18T20:38:41.125Z,20.05
2022-12-18T20:41:16.761Z,22.42
2022-12-18T20:43:44.515Z,22.02
2022-12-18T20:46:13.761Z,18.02
2022-12-18T20:48:41.047Z,19.20
2022-12-18T20:53:36.408Z,16.70
2022-12-18T20:56:09.502Z,24.80
2022-12-18T20:58:36.404Z,22.30
2022-12-18T21:01:05.456Z,18.63
2022-12-18T21:03:32.523Z,15.43
2022-12-18T21:05:59.662Z,16.85
2022-12-18T21:08:26.424Z,20.75
2022-12-18T21:10:53.328Z,21.15
2022-12-18T21:13:22.480Z,15.43
2022-12-18T21:15:49.210Z,14.38
2022-12-18T21:18:16.036Z,13.85
2022-12-18T21:20:42.787Z,29.42
2022-12-18T21:23:16.512Z,21.27
2022-12-18T21:25:44.332Z,21.92
2022-12-18T21:28:12.348Z,15.80
2022-12-18T21:30:39.121Z,21.17
2022-12-18T21:33:05.797Z,17.40
2022-12-18T21:35:32.479Z,16.58
2022-12-18T21:37:59.141Z,11.57
2022-12-18T21:40:25.802Z,13.55
2022-12-18T21:43:17.891Z,14.60
2022-12-18T21:45:44.706Z,16.65
2022-12-18T21:48:12.135Z,23.63
2022-12-18T21:50:38.987Z,16.10
2022-12-18T21:53:05.668Z,19.15
2022-12-18T21:55:32.338Z,21.48
2022-12-18T21:57:59.093Z,31.40
2022-12-18T22:00:25.830Z,20.45
2022-12-18T22:03:17.219Z,18.88
2022-12-18T22:05:39.352Z,14.70
2022-12-18T22:08:07.462Z,11.75
2022-12-18T22:10:34.716Z,10.68
2022-12-18T22:13:01.443Z,15.77
2022-12-18T22:15:28.252Z,20.38
2022-12-18T22:17:59.683Z,18.23
2022-12-18T22:20:28.100Z,14.60
2022-12-18T22:22:56.553Z,14.20
2022-12-18T22:25:23.265Z,17.33
2022-12-18T22:28:08.539Z,18.23
2022-12-18T22:30:35.600Z,12.98
2022-12-18T22:33:03.477Z,17.10
2022-12-18T22:35:30.299Z,14.15
2022-12-18T22:37:59.360Z,17.63
2022-12-18T22:40:26.964Z,14.70
2022-12-18T22:42:54.316Z,12.52
2022-12-18T22:47:47.809Z,14.73
2022-12-18T22:50:15.196Z,12.05
2022-12-18T22:52:42.425Z,14.07
2022-12-18T22:55:09.370Z,15.93
2022-12-18T22:57:36.103Z,14.52
2022-12-18T23:00:05.600Z,12.80
2022-12-18T23:02:32.667Z,11.38
2022-12-18T23:04:59.509Z,16.85
2022-12-18T23:07:26.184Z,9.25
2022-12-18T23:09:59.588Z,11.10
2022-12-18T23:12:28.013Z,13.95
2022-12-18T23:14:54.784Z,13.18
2022-12-18T23:17:21.513Z,14.48
2022-12-18T23:19:49.379Z,9.88
2022-12-18T23:22:17.123Z,11.38
2022-12-18T23:24:44.088Z,10.50
2022-12-18T23:27:11.879Z,13.80
2022-12-18T23:29:39.493Z,10.18
2022-12-18T23:34:33.323Z,13.25
2022-12-18T23:37:01.006Z,12.00
2022-12-18T23:39:29.304Z,16.05
2022-12-18T23:42:00.184Z,12.82
2022-12-18T23:44:27.286Z,12.00
2022-12-18T23:46:54.291Z,12.18
2022-12-18T23:49:21.166Z,14.00
2022-12-18T23:51:48.002Z,10.13
2022-12-18T23:54:14.808Z,12.02
2022-12-18T23:56:41.813Z,11.75
2022-12-18T23:59:08.623Z,12.52
